sensor_id;sensor_type;location;lat;lon;timestamp;P1;durP1;ratioP1;P2;durP2;ratioP2
54641;SDS011;40536;53.194;5.728;2023-11-21T00:00:51;271.70;;;259.48;;
54641;SDS011;40536;53.194;5.728;2023-11-21T00:03:17;265.83;;;254.27;;
54641;SDS011;40536;53.194;5.728;2023-11-21T00:05:44;276.20;;;264.25;;
54641;SDS011;40536;53.194;5.728;2023-11-21T00:08:09;283.75;;;271.10;;
54641;SDS011;40536;53.194;5.728;2023-11-21T00:10:35;302.55;;;289.55;;
54641;SDS011;40536;53.194;5.728;2023-11-21T00:13:03;277.35;;;265.45;;
54641;SDS011;40536;53.194;5.728;2023-11-21T00:15:29;278.10;;;266.05;;
54641;SDS011;40536;53.194;5.728;2023-11-21T00:17:55;251.68;;;240.60;;
54641;SDS011;40536;53.194;5.728;2023-11-21T00:20:20;264.90;;;253.68;;
54641;SDS011;40536;53.194;5.728;2023-11-21T00:22:46;285.77;;;273.25;;
54641;SDS011;40536;53.194;5.728;2023-11-21T00:25:12;272.63;;;260.70;;
54641;SDS011;40536;53.194;5.728;2023-11-21T00:27:40;248.48;;;237.20;;
54641;SDS011;40536;53.194;5.728;2023-11-21T00:30:06;277.05;;;264.80;;
54641;SDS011;40536;53.194;5.728;2023-11-21T00:32:35;256.20;;;244.93;;
54641;SDS011;40536;53.194;5.728;2023-11-21T00:35:01;279.20;;;266.77;;
54641;SDS011;40536;53.194;5.728;2023-11-21T00:37:27;278.73;;;266.50;;
54641;SDS011;40536;53.194;5.728;2023-11-21T00:39:53;299.17;;;286.05;;
54641;SDS011;40536;53.194;5.728;2023-11-21T00:42:18;280.70;;;268.35;;
54641;SDS011;40536;53.194;5.728;2023-11-21T00:44:44;272.67;;;260.65;;
54641;SDS011;40536;53.194;5.728;2023-11-21T00:47:10;267.50;;;255.70;;
54641;SDS011;40536;53.194;5.728;2023-11-21T00:49:36;271.42;;;259.75;;
54641;SDS011;40536;53.194;5.728;2023-11-21T00:52:01;269.92;;;258.20;;
54641;SDS011;40536;53.194;5.728;2023-11-21T00:54:27;268.83;;;256.85;;
54641;SDS011;40536;53.194;5.728;2023-11-21T00:56:53;253.93;;;242.75;;
54641;SDS011;40536;53.194;5.728;2023-11-21T00:59:19;260.17;;;248.75;;
54641;SDS011;40536;53.194;5.728;2023-11-21T01:01:44;289.40;;;276.60;;
54641;SDS011;40536;53.194;5.728;2023-11-21T01:04:10;271.30;;;258.75;;
54641;SDS011;40536;53.194;5.728;2023-11-21T01:06:36;281.58;;;269.10;;
54641;SDS011;40536;53.194;5.728;2023-11-21T01:09:01;270.98;;;258.73;;
54641;SDS011;40536;53.194;5.728;2023-11-21T01:11:32;253.48;;;242.32;;
54641;SDS011;40536;53.194;5.728;2023-11-21T01:14:01;270.73;;;258.30;;
54641;SDS011;40536;53.194;5.728;2023-11-21T01:16:28;231.20;;;220.80;;
54641;SDS011;40536;53.194;5.728;2023-11-21T01:18:54;238.93;;;226.70;;
54641;SDS011;40536;53.194;5.728;2023-11-21T01:21:20;247.60;;;236.10;;
54641;SDS011;40536;53.194;5.728;2023-11-21T01:23:45;253.25;;;241.95;;
54641;SDS011;40536;53.194;5.728;2023-11-21T01:26:12;260.60;;;248.45;;
54641;SDS011;40536;53.194;5.728;2023-11-21T01:28:38;252.40;;;240.32;;
54641;SDS011;40536;53.194;5.728;2023-11-21T01:31:04;268.15;;;255.20;;
54641;SDS011;40536;53.194;5.728;2023-11-21T01:33:29;296.45;;;282.88;;
54641;SDS011;40536;53.194;5.728;2023-11-21T01:35:55;290.65;;;277.35;;
54641;SDS011;40536;53.194;5.728;2023-11-21T01:38:21;327.08;;;311.20;;
54641;SDS011;40536;53.194;5.728;2023-11-21T01:40:47;323.70;;;309.13;;
54641;SDS011;40536;53.194;5.728;2023-11-21T01:43:13;339.98;;;323.98;;
54641;SDS011;40536;53.194;5.728;2023-11-21T01:45:38;337.80;;;321.58;;
54641;SDS011;40536;53.194;5.728;2023-11-21T01:48:04;348.65;;;332.35;;
54641;SDS011;40536;53.194;5.728;2023-11-21T01:50:32;355.67;;;339.00;;
54641;SDS011;40536;53.194;5.728;2023-11-21T01:52:58;362.42;;;345.25;;
54641;SDS011;40536;53.194;5.728;2023-11-21T01:55:25;343.85;;;327.63;;
54641;SDS011;40536;53.194;5.728;2023-11-21T01:57:52;342.23;;;326.25;;
54641;SDS011;40536;53.194;5.728;2023-11-21T02:00:18;348.85;;;332.17;;
54641;SDS011;40536;53.194;5.728;2023-11-21T02:05:11;379.83;;;361.58;;
54641;SDS011;40536;53.194;5.728;2023-11-21T02:07:38;378.20;;;359.38;;
54641;SDS011;40536;53.194;5.728;2023-11-21T02:10:05;376.48;;;357.90;;
54641;SDS011;40536;53.194;5.728;2023-11-21T02:12:32;376.42;;;356.95;;
54641;SDS011;40536;53.194;5.728;2023-11-21T02:15:00;374.60;;;356.35;;
54641;SDS011;40536;53.194;5.728;2023-11-21T02:17:37;363.00;;;345.40;;
54641;SDS011;40536;53.194;5.728;2023-11-21T02:20:03;359.23;;;342.10;;
54641;SDS011;40536;53.194;5.728;2023-11-21T02:22:31;350.02;;;333.10;;
54641;SDS011;40536;53.194;5.728;2023-11-21T02:25:02;362.65;;;344.92;;
54641;SDS011;40536;53.194;5.728;2023-11-21T02:27:28;334.27;;;318.13;;
54641;SDS011;40536;53.194;5.728;2023-11-21T02:29:54;335.08;;;319.45;;
54641;SDS011;40536;53.194;5.728;2023-11-21T02:32:20;324.02;;;308.60;;
54641;SDS011;40536;53.194;5.728;2023-11-21T02:34:48;329.23;;;313.27;;
54641;SDS011;40536;53.194;5.728;2023-11-21T02:37:13;306.52;;;292.13;;
54641;SDS011;40536;53.194;5.728;2023-11-21T02:39:39;307.45;;;293.60;;
54641;SDS011;40536;53.194;5.728;2023-11-21T02:42:05;319.10;;;304.17;;
54641;SDS011;40536;53.194;5.728;2023-11-21T02:44:30;309.90;;;295.85;;
54641;SDS011;40536;53.194;5.728;2023-11-21T02:46:56;288.23;;;274.58;;
54641;SDS011;40536;53.194;5.728;2023-11-21T02:49:22;294.65;;;280.90;;
54641;SDS011;40536;53.194;5.728;2023-11-21T02:51:51;297.60;;;282.95;;
54641;SDS011;40536;53.194;5.728;2023-11-21T02:54:16;307.95;;;292.17;;
54641;SDS011;40536;53.194;5.728;2023-11-21T02:56:43;321.10;;;305.40;;
54641;SDS011;40536;53.194;5.728;2023-11-21T02:59:09;308.73;;;293.77;;
54641;SDS011;40536;53.194;5.728;2023-11-21T03:01:34;358.30;;;340.77;;
54641;SDS011;40536;53.194;5.728;2023-11-21T03:04:00;310.60;;;295.65;;
54641;SDS011;40536;53.194;5.728;2023-11-21T03:06:26;303.13;;;288.73;;
54641;SDS011;40536;53.194;5.728;2023-11-21T03:08:52;395.27;;;375.27;;
54641;SDS011;40536;53.194;5.728;2023-11-21T03:11:18;335.52;;;318.80;;
54641;SDS011;40536;53.194;5.728;2023-11-21T03:13:43;376.90;;;355.98;;
54641;SDS011;40536;53.194;5.728;2023-11-21T03:16:10;449.95;;;425.38;;
54641;SDS011;40536;53.194;5.728;2023-11-21T03:18:36;390.45;;;370.85;;
54641;SDS011;40536;53.194;5.728;2023-11-21T03:21:03;423.33;;;401.48;;
54641;SDS011;40536;53.194;5.728;2023-11-21T03:23:30;453.48;;;430.25;;
54641;SDS011;40536;53.194;5.728;2023-11-21T03:25:56;436.25;;;415.25;;
54641;SDS011;40536;53.194;5.728;2023-11-21T03:28:21;462.02;;;438.40;;
54641;SDS011;40536;53.194;5.728;2023-11-21T03:30:48;427.02;;;405.63;;
54641;SDS011;40536;53.194;5.728;2023-11-21T03:33:14;418.48;;;398.50;;
54641;SDS011;40536;53.194;5.728;2023-11-21T03:35:40;411.75;;;392.45;;
54641;SDS011;40536;53.194;5.728;2023-11-21T03:38:08;436.10;;;415.10;;
54641;SDS011;40536;53.194;5.728;2023-11-21T03:40:35;434.30;;;412.77;;
54641;SDS011;40536;53.194;5.728;2023-11-21T03:43:00;397.55;;;379.10;;
54641;SDS011;40536;53.194;5.728;2023-11-21T03:45:26;400.77;;;382.05;;
54641;SDS011;40536;53.194;5.728;2023-11-21T03:47:52;439.38;;;416.52;;
54641;SDS011;40536;53.194;5.728;2023-11-21T03:50:19;441.42;;;419.25;;
54641;SDS011;40536;53.194;5.728;2023-11-21T03:52:45;472.40;;;448.52;;
54641;SDS011;40536;53.194;5.728;2023-11-21T03:55:10;459.75;;;437.05;;
54641;SDS011;40536;53.194;5.728;2023-11-21T03:57:36;455.60;;;431.30;;
54641;SDS011;40536;53.194;5.728;2023-11-21T04:00:02;447.58;;;424.85;;
54641;SDS011;40536;53.194;5.728;2023-11-21T04:02:31;429.40;;;408.38;;
54641;SDS011;40536;53.194;5.728;2023-11-21T04:04:57;424.08;;;402.95;;
54641;SDS011;40536;53.194;5.728;2023-11-21T04:07:22;397.70;;;378.52;;
54641;SDS011;40536;53.194;5.728;2023-11-21T04:09:48;401.33;;;381.77;;
54641;SDS011;40536;53.194;5.728;2023-11-21T04:12:14;403.77;;;383.35;;
54641;SDS011;40536;53.194;5.728;2023-11-21T04:14:39;432.08;;;409.48;;
54641;SDS011;40536;53.194;5.728;2023-11-21T04:17:05;374.77;;;356.13;;
54641;SDS011;40536;53.194;5.728;2023-11-21T04:19:31;455.42;;;431.00;;
54641;SDS011;40536;53.194;5.728;2023-11-21T04:21:58;424.52;;;403.65;;
54641;SDS011;40536;53.194;5.728;2023-11-21T04:24:24;417.65;;;396.08;;
54641;SDS011;40536;53.194;5.728;2023-11-21T04:26:49;441.58;;;418.38;;
54641;SDS011;40536;53.194;5.728;2023-11-21T04:29:15;405.02;;;385.33;;
54641;SDS011;40536;53.194;5.728;2023-11-21T04:31:40;393.95;;;374.55;;
54641;SDS011;40536;53.194;5.728;2023-11-21T04:34:06;384.38;;;365.27;;
54641;SDS011;40536;53.194;5.728;2023-11-21T04:36:33;381.42;;;362.80;;
54641;SDS011;40536;53.194;5.728;2023-11-21T04:38:59;392.17;;;372.45;;
54641;SDS011;40536;53.194;5.728;2023-11-21T04:41:25;353.45;;;336.17;;
54641;SDS011;40536;53.194;5.728;2023-11-21T04:43:51;373.27;;;353.85;;
54641;SDS011;40536;53.194;5.728;2023-11-21T04:46:17;341.98;;;325.20;;
54641;SDS011;40536;53.194;5.728;2023-11-21T04:48:42;364.02;;;345.58;;
54641;SDS011;40536;53.194;5.728;2023-11-21T04:51:09;335.98;;;319.40;;
54641;SDS011;40536;53.194;5.728;2023-11-21T04:53:38;349.50;;;332.52;;
54641;SDS011;40536;53.194;5.728;2023-11-21T04:56:04;342.80;;;326.17;;
54641;SDS011;40536;53.194;5.728;2023-11-21T04:58:30;343.98;;;327.13;;
54641;SDS011;40536;53.194;5.728;2023-11-21T05:00:57;348.40;;;330.67;;
54641;SDS011;40536;53.194;5.728;2023-11-21T05:03:22;371.20;;;352.45;;
54641;SDS011;40536;53.194;5.728;2023-11-21T05:05:48;391.30;;;370.83;;
54641;SDS011;40536;53.194;5.728;2023-11-21T05:08:14;369.88;;;350.98;;
54641;SDS011;40536;53.194;5.728;2023-11-21T05:10:40;370.48;;;352.08;;
54641;SDS011;40536;53.194;5.728;2023-11-21T05:13:05;396.23;;;375.15;;
54641;SDS011;40536;53.194;5.728;2023-11-21T05:15:35;336.40;;;318.00;;
54641;SDS011;40536;53.194;5.728;2023-11-21T05:18:02;321.48;;;305.02;;
54641;SDS011;40536;53.194;5.728;2023-11-21T05:20:28;310.27;;;295.17;;
54641;SDS011;40536;53.194;5.728;2023-11-21T05:22:53;303.30;;;288.55;;
54641;SDS011;40536;53.194;5.728;2023-11-21T05:25:19;308.00;;;292.15;;
54641;SDS011;40536;53.194;5.728;2023-11-21T05:27:48;316.20;;;299.85;;
54641;SDS011;40536;53.194;5.728;2023-11-21T05:30:13;242.93;;;230.30;;
54641;SDS011;40536;53.194;5.728;2023-11-21T05:32:40;314.20;;;297.77;;
54641;SDS011;40536;53.194;5.728;2023-11-21T05:35:07;297.92;;;281.42;;
54641;SDS011;40536;53.194;5.728;2023-11-21T05:37:37;241.50;;;228.98;;
54641;SDS011;40536;53.194;5.728;2023-11-21T05:40:07;259.33;;;244.02;;
54641;SDS011;40536;53.194;5.728;2023-11-21T05:42:35;272.75;;;257.48;;
54641;SDS011;40536;53.194;5.728;2023-11-21T05:45:03;278.83;;;263.70;;
54641;SDS011;40536;53.194;5.728;2023-11-21T05:47:42;298.50;;;282.00;;
54641;SDS011;40536;53.194;5.728;2023-11-21T05:50:11;271.75;;;255.82;;
54641;SDS011;40536;53.194;5.728;2023-11-21T05:52:48;315.85;;;298.90;;
54641;SDS011;40536;53.194;5.728;2023-11-21T05:55:14;301.60;;;284.17;;
54641;SDS011;40536;53.194;5.728;2023-11-21T05:57:41;330.67;;;312.83;;
54641;SDS011;40536;53.194;5.728;2023-11-21T06:00:14;333.15;;;315.08;;
54641;SDS011;40536;53.194;5.728;2023-11-21T06:02:50;381.50;;;360.33;;
54641;SDS011;40536;53.194;5.728;2023-11-21T06:05:23;321.00;;;303.73;;
54641;SDS011;40536;53.194;5.728;2023-11-21T06:07:51;377.08;;;356.15;;
54641;SDS011;40536;53.194;5.728;2023-11-21T06:12:52;354.13;;;336.40;;
54641;SDS011;40536;53.194;5.728;2023-11-21T06:15:18;350.45;;;331.75;;
54641;SDS011;40536;53.194;5.728;2023-11-21T06:17:46;420.00;;;396.25;;
54641;SDS011;40536;53.194;5.728;2023-11-21T06:20:14;347.08;;;329.08;;
54641;SDS011;40536;53.194;5.728;2023-11-21T06:22:44;363.23;;;344.13;;
54641;SDS011;40536;53.194;5.728;2023-11-21T06:25:12;290.08;;;274.60;;
54641;SDS011;40536;53.194;5.728;2023-11-21T06:27:39;348.25;;;329.40;;
54641;SDS011;40536;53.194;5.728;2023-11-21T06:30:15;328.15;;;310.25;;
54641;SDS011;40536;53.194;5.728;2023-11-21T06:32:41;345.52;;;327.63;;
54641;SDS011;40536;53.194;5.728;2023-11-21T06:35:10;327.65;;;310.58;;
54641;SDS011;40536;53.194;5.728;2023-11-21T06:37:36;364.58;;;344.08;;
54641;SDS011;40536;53.194;5.728;2023-11-21T06:40:02;306.77;;;290.45;;
54641;SDS011;40536;53.194;5.728;2023-11-21T06:42:31;344.88;;;326.85;;
54641;SDS011;40536;53.194;5.728;2023-11-21T06:44:58;284.67;;;269.75;;
54641;SDS011;40536;53.194;5.728;2023-11-21T06:47:27;310.02;;;293.65;;
54641;SDS011;40536;53.194;5.728;2023-11-21T06:49:54;289.77;;;274.38;;
54641;SDS011;40536;53.194;5.728;2023-11-21T06:52:20;313.52;;;296.20;;
54641;SDS011;40536;53.194;5.728;2023-11-21T06:54:46;310.98;;;293.70;;
54641;SDS011;40536;53.194;5.728;2023-11-21T06:57:14;288.55;;;273.60;;
54641;SDS011;40536;53.194;5.728;2023-11-21T06:59:40;328.42;;;310.42;;
54641;SDS011;40536;53.194;5.728;2023-11-21T07:02:06;317.60;;;299.40;;
54641;SDS011;40536;53.194;5.728;2023-11-21T07:04:32;268.63;;;253.68;;
54641;SDS011;40536;53.194;5.728;2023-11-21T07:06:58;296.70;;;280.40;;
54641;SDS011;40536;53.194;5.728;2023-11-21T07:09:24;269.48;;;254.55;;
54641;SDS011;40536;53.194;5.728;2023-11-21T07:11:54;310.02;;;292.17;;
54641;SDS011;40536;53.194;5.728;2023-11-21T07:14:20;290.60;;;273.90;;
54641;SDS011;40536;53.194;5.728;2023-11-21T07:16:46;285.98;;;270.02;;
54641;SDS011;40536;53.194;5.728;2023-11-21T07:19:12;340.15;;;321.08;;
54641;SDS011;40536;53.194;5.728;2023-11-21T07:21:39;292.13;;;275.95;;
54641;SDS011;40536;53.194;5.728;2023-11-21T07:24:11;251.52;;;238.05;;
54641;SDS011;40536;53.194;5.728;2023-11-21T07:26:36;174.45;;;164.70;;
54641;SDS011;40536;53.194;5.728;2023-11-21T07:29:02;219.15;;;207.07;;
54641;SDS011;40536;53.194;5.728;2023-11-21T07:31:28;171.75;;;161.95;;
54641;SDS011;40536;53.194;5.728;2023-11-21T07:33:54;174.60;;;164.65;;
54641;SDS011;40536;53.194;5.728;2023-11-21T07:36:23;165.27;;;156.30;;
54641;SDS011;40536;53.194;5.728;2023-11-21T07:38:49;147.55;;;139.35;;
54641;SDS011;40536;53.194;5.728;2023-11-21T07:41:18;154.00;;;145.48;;
54641;SDS011;40536;53.194;5.728;2023-11-21T07:43:44;143.82;;;135.20;;
54641;SDS011;40536;53.194;5.728;2023-11-21T07:46:11;135.52;;;127.97;;
54641;SDS011;40536;53.194;5.728;2023-11-21T07:48:41;184.15;;;174.20;;
54641;SDS011;40536;53.194;5.728;2023-11-21T07:51:07;136.77;;;128.95;;
54641;SDS011;40536;53.194;5.728;2023-11-21T07:53:37;123.63;;;116.47;;
54641;SDS011;40536;53.194;5.728;2023-11-21T07:56:03;134.30;;;126.32;;
54641;SDS011;40536;53.194;5.728;2023-11-21T07:58:30;157.93;;;148.52;;
54641;SDS011;40536;53.194;5.728;2023-11-21T08:00:58;114.68;;;107.70;;
54641;SDS011;40536;53.194;5.728;2023-11-21T08:03:24;119.90;;;112.47;;
54641;SDS011;40536;53.194;5.728;2023-11-21T08:05:51;118.22;;;110.97;;
54641;SDS011;40536;53.194;5.728;2023-11-21T08:08:17;132.07;;;124.22;;
54641;SDS011;40536;53.194;5.728;2023-11-21T08:10:44;107.95;;;101.43;;
54641;SDS011;40536;53.194;5.728;2023-11-21T08:13:27;117.60;;;110.80;;
54641;SDS011;40536;53.194;5.728;2023-11-21T08:15:55;103.45;;;97.18;;
54641;SDS011;40536;53.194;5.728;2023-11-21T08:18:26;102.57;;;96.25;;
54641;SDS011;40536;53.194;5.728;2023-11-21T08:20:52;124.18;;;117.07;;
54641;SDS011;40536;53.194;5.728;2023-11-21T08:23:20;93.30;;;87.35;;
54641;SDS011;40536;53.194;5.728;2023-11-21T08:25:50;89.45;;;84.03;;
54641;SDS011;40536;53.194;5.728;2023-11-21T08:28:17;102.28;;;95.95;;
54641;SDS011;40536;53.194;5.728;2023-11-21T08:30:44;94.03;;;88.43;;
54641;SDS011;40536;53.194;5.728;2023-11-21T08:33:10;102.60;;;96.55;;
54641;SDS011;40536;53.194;5.728;2023-11-21T08:35:38;96.13;;;90.28;;
54641;SDS011;40536;53.194;5.728;2023-11-21T08:38:04;97.60;;;91.75;;
54641;SDS011;40536;53.194;5.728;2023-11-21T08:40:30;89.15;;;84.05;;
54641;SDS011;40536;53.194;5.728;2023-11-21T08:42:56;181.40;;;171.57;;
54641;SDS011;40536;53.194;5.728;2023-11-21T08:45:23;309.65;;;293.95;;
54641;SDS011;40536;53.194;5.728;2023-11-21T08:47:51;88.47;;;83.32;;
54641;SDS011;40536;53.194;5.728;2023-11-21T08:50:16;72.95;;;68.30;;
54641;SDS011;40536;53.194;5.728;2023-11-21T08:52:43;79.03;;;74.10;;
54641;SDS011;40536;53.194;5.728;2023-11-21T08:55:11;68.65;;;63.90;;
54641;SDS011;40536;53.194;5.728;2023-11-21T08:57:40;68.53;;;64.07;;
54641;SDS011;40536;53.194;5.728;2023-11-21T09:00:08;57.88;;;53.90;;
54641;SDS011;40536;53.194;5.728;2023-11-21T09:02:42;71.47;;;67.10;;
54641;SDS011;40536;53.194;5.728;2023-11-21T09:05:12;61.88;;;57.88;;
54641;SDS011;40536;53.194;5.728;2023-11-21T09:07:39;56.95;;;52.95;;
54641;SDS011;40536;53.194;5.728;2023-11-21T09:10:06;58.10;;;54.33;;
54641;SDS011;40536;53.194;5.728;2023-11-21T09:12:32;55.63;;;51.95;;
54641;SDS011;40536;53.194;5.728;2023-11-21T09:15:00;57.72;;;54.22;;
54641;SDS011;40536;53.194;5.728;2023-11-21T09:17:36;63.45;;;59.75;;
54641;SDS011;40536;53.194;5.728;2023-11-21T09:20:02;49.45;;;46.53;;
54641;SDS011;40536;53.194;5.728;2023-11-21T09:22:30;52.38;;;49.30;;
54641;SDS011;40536;53.194;5.728;2023-11-21T09:24:57;54.95;;;51.95;;
54641;SDS011;40536;53.194;5.728;2023-11-21T09:27:23;43.65;;;41.00;;
54641;SDS011;40536;53.194;5.728;2023-11-21T09:29:49;41.97;;;39.33;;
54641;SDS011;40536;53.194;5.728;2023-11-21T09:32:14;38.78;;;36.30;;
54641;SDS011;40536;53.194;5.728;2023-11-21T09:34:41;43.50;;;40.70;;
54641;SDS011;40536;53.194;5.728;2023-11-21T09:37:07;33.75;;;31.08;;
54641;SDS011;40536;53.194;5.728;2023-11-21T09:39:33;37.28;;;34.72;;
54641;SDS011;40536;53.194;5.728;2023-11-21T09:42:08;40.42;;;37.63;;
54641;SDS011;40536;53.194;5.728;2023-11-21T09:44:36;40.40;;;37.67;;
54641;SDS011;40536;53.194;5.728;2023-11-21T09:47:10;38.08;;;35.28;;
54641;SDS011;40536;53.194;5.728;2023-11-21T09:49:41;32.25;;;29.90;;
54641;SDS011;40536;53.194;5.728;2023-11-21T09:52:27;70.97;;;60.58;;
54641;SDS011;40536;53.194;5.728;2023-11-21T09:54:54;38.20;;;35.53;;
54641;SDS011;40536;53.194;5.728;2023-11-21T09:57:24;29.60;;;27.30;;
54641;SDS011;40536;53.194;5.728;2023-11-21T09:59:53;35.50;;;32.90;;
54641;SDS011;40536;53.194;5.728;2023-11-21T10:02:24;29.23;;;26.63;;
54641;SDS011;40536;53.194;5.728;2023-11-21T10:04:51;26.90;;;24.65;;
54641;SDS011;40536;53.194;5.728;2023-11-21T10:07:18;59.53;;;55.50;;
54641;SDS011;40536;53.194;5.728;2023-11-21T10:09:45;45.03;;;41.75;;
54641;SDS011;40536;53.194;5.728;2023-11-21T10:12:13;24.83;;;22.75;;
54641;SDS011;40536;53.194;5.728;2023-11-21T10:14:41;27.58;;;25.15;;
54641;SDS011;40536;53.194;5.728;2023-11-21T10:17:10;23.88;;;21.58;;
54641;SDS011;40536;53.194;5.728;2023-11-21T10:19:38;34.60;;;32.05;;
54641;SDS011;40536;53.194;5.728;2023-11-21T10:22:05;25.92;;;23.75;;
54641;SDS011;40536;53.194;5.728;2023-11-21T10:24:32;29.83;;;27.50;;
54641;SDS011;40536;53.194;5.728;2023-11-21T10:26:58;26.90;;;24.60;;
54641;SDS011;40536;53.194;5.728;2023-11-21T10:29:28;31.02;;;28.52;;
54641;SDS011;40536;53.194;5.728;2023-11-21T10:31:54;29.73;;;26.95;;
54641;SDS011;40536;53.194;5.728;2023-11-21T10:34:22;28.05;;;25.83;;
54641;SDS011;40536;53.194;5.728;2023-11-21T10:36:48;28.98;;;26.40;;
54641;SDS011;40536;53.194;5.728;2023-11-21T10:39:16;30.42;;;27.35;;
54641;SDS011;40536;53.194;5.728;2023-11-21T10:41:43;28.20;;;25.55;;
54641;SDS011;40536;53.194;5.728;2023-11-21T10:44:11;28.90;;;26.08;;
54641;SDS011;40536;53.194;5.728;2023-11-21T10:46:39;30.02;;;27.42;;
54641;SDS011;40536;53.194;5.728;2023-11-21T10:49:07;28.30;;;25.80;;
54641;SDS011;40536;53.194;5.728;2023-11-21T10:51:34;29.33;;;27.00;;
54641;SDS011;40536;53.194;5.728;2023-11-21T10:54:12;28.50;;;26.08;;
54641;SDS011;40536;53.194;5.728;2023-11-21T10:56:39;27.83;;;25.63;;
54641;SDS011;40536;53.194;5.728;2023-11-21T10:59:08;28.80;;;26.30;;
54641;SDS011;40536;53.194;5.728;2023-11-21T11:01:40;26.83;;;24.63;;
54641;SDS011;40536;53.194;5.728;2023-11-21T11:04:08;28.30;;;26.00;;
54641;SDS011;40536;53.194;5.728;2023-11-21T11:06:42;43.00;;;39.72;;
54641;SDS011;40536;53.194;5.728;2023-11-21T11:09:10;27.52;;;25.33;;
54641;SDS011;40536;53.194;5.728;2023-11-21T11:11:39;33.92;;;31.40;;
54641;SDS011;40536;53.194;5.728;2023-11-21T11:14:19;43.38;;;40.10;;
54641;SDS011;40536;53.194;5.728;2023-11-21T11:16:48;28.25;;;25.92;;
54641;SDS011;40536;53.194;5.728;2023-11-21T11:19:14;26.73;;;24.45;;
54641;SDS011;40536;53.194;5.728;2023-11-21T11:26:59;24.83;;;22.55;;
54641;SDS011;40536;53.194;5.728;2023-11-21T11:29:35;24.52;;;22.58;;
54641;SDS011;40536;53.194;5.728;2023-11-21T11:32:09;24.45;;;22.33;;
54641;SDS011;40536;53.194;5.728;2023-11-21T11:37:27;24.00;;;22.00;;
54641;SDS011;40536;53.194;5.728;2023-11-21T11:39:53;24.77;;;22.75;;
54641;SDS011;40536;53.194;5.728;2023-11-21T11:42:19;25.67;;;23.48;;
54641;SDS011;40536;53.194;5.728;2023-11-21T11:44:48;24.02;;;21.73;;
54641;SDS011;40536;53.194;5.728;2023-11-21T11:47:24;24.88;;;22.85;;
54641;SDS011;40536;53.194;5.728;2023-11-21T11:55:07;22.08;;;20.17;;
54641;SDS011;40536;53.194;5.728;2023-11-21T11:57:54;22.23;;;20.33;;
54641;SDS011;40536;53.194;5.728;2023-11-21T12:02:53;18.65;;;16.95;;
54641;SDS011;40536;53.194;5.728;2023-11-21T12:05:22;19.00;;;17.40;;
54641;SDS011;40536;53.194;5.728;2023-11-21T12:07:52;23.15;;;21.35;;
54641;SDS011;40536;53.194;5.728;2023-11-21T12:13:06;17.55;;;15.77;;
54641;SDS011;40536;53.194;5.728;2023-11-21T12:15:35;14.07;;;12.77;;
54641;SDS011;40536;53.194;5.728;2023-11-21T12:18:01;14.60;;;13.30;;
54641;SDS011;40536;53.194;5.728;2023-11-21T12:20:27;23.52;;;21.65;;
54641;SDS011;40536;53.194;5.728;2023-11-21T12:22:58;21.13;;;19.63;;
54641;SDS011;40536;53.194;5.728;2023-11-21T12:25:25;21.30;;;19.77;;
54641;SDS011;40536;53.194;5.728;2023-11-21T12:27:56;19.08;;;17.67;;
54641;SDS011;40536;53.194;5.728;2023-11-21T12:30:23;16.92;;;15.63;;
54641;SDS011;40536;53.194;5.728;2023-11-21T12:32:54;18.42;;;17.13;;
54641;SDS011;40536;53.194;5.728;2023-11-21T12:35:24;17.63;;;16.33;;
54641;SDS011;40536;53.194;5.728;2023-11-21T12:37:51;18.45;;;17.05;;
54641;SDS011;40536;53.194;5.728;2023-11-21T12:40:18;19.33;;;17.90;;
54641;SDS011;40536;53.194;5.728;2023-11-21T12:42:45;18.08;;;16.63;;
54641;SDS011;40536;53.194;5.728;2023-11-21T12:47:45;19.90;;;18.30;;
54641;SDS011;40536;53.194;5.728;2023-11-21T12:50:23;21.84;;;20.26;;
54641;SDS011;40536;53.194;5.728;2023-11-21T12:52:54;24.17;;;22.58;;
54641;SDS011;40536;53.194;5.728;2023-11-21T12:55:23;26.33;;;24.27;;
54641;SDS011;40536;53.194;5.728;2023-11-21T12:57:54;25.42;;;23.73;;
54641;SDS011;40536;53.194;5.728;2023-11-21T13:00:28;43.10;;;40.65;;
54641;SDS011;40536;53.194;5.728;2023-11-21T13:02:58;28.23;;;26.48;;
54641;SDS011;40536;53.194;5.728;2023-11-21T13:05:26;32.30;;;30.13;;
54641;SDS011;40536;53.194;5.728;2023-11-21T13:07:53;33.25;;;31.08;;
54641;SDS011;40536;53.194;5.728;2023-11-21T13:10:23;34.60;;;32.05;;
54641;SDS011;40536;53.194;5.728;2023-11-21T13:12:52;33.65;;;31.55;;
54641;SDS011;40536;53.194;5.728;2023-11-21T13:15:18;26.50;;;24.70;;
54641;SDS011;40536;53.194;5.728;2023-11-21T13:17:45;33.78;;;31.35;;
54641;SDS011;40536;53.194;5.728;2023-11-21T13:20:11;28.17;;;26.30;;
54641;SDS011;40536;53.194;5.728;2023-11-21T13:22:54;29.38;;;27.52;;
54641;SDS011;40536;53.194;5.728;2023-11-21T13:25:26;28.38;;;26.15;;
54641;SDS011;40536;53.194;5.728;2023-11-21T13:27:53;25.35;;;23.60;;
54641;SDS011;40536;53.194;5.728;2023-11-21T13:30:19;23.55;;;21.98;;
54641;SDS011;40536;53.194;5.728;2023-11-21T13:33:01;27.08;;;25.17;;
54641;SDS011;40536;53.194;5.728;2023-11-21T13:35:31;28.13;;;26.13;;
54641;SDS011;40536;53.194;5.728;2023-11-21T13:38:10;26.13;;;24.42;;
54641;SDS011;40536;53.194;5.728;2023-11-21T13:40:38;27.20;;;25.20;;
54641;SDS011;40536;53.194;5.728;2023-11-21T13:43:10;27.17;;;25.45;;
54641;SDS011;40536;53.194;5.728;2023-11-21T13:45:40;28.35;;;26.38;;
54641;SDS011;40536;53.194;5.728;2023-11-21T13:48:07;27.38;;;25.38;;
54641;SDS011;40536;53.194;5.728;2023-11-21T13:50:45;29.08;;;27.13;;
54641;SDS011;40536;53.194;5.728;2023-11-21T13:53:23;31.25;;;29.20;;
54641;SDS011;40536;53.194;5.728;2023-11-21T13:55:52;32.88;;;30.67;;
54641;SDS011;40536;53.194;5.728;2023-11-21T13:58:19;40.95;;;38.53;;
54641;SDS011;40536;53.194;5.728;2023-11-21T14:01:09;38.35;;;35.92;;
54641;SDS011;40536;53.194;5.728;2023-11-21T14:03:59;46.15;;;43.40;;
54641;SDS011;40536;53.194;5.728;2023-11-21T14:06:34;52.70;;;49.58;;
54641;SDS011;40536;53.194;5.728;2023-11-21T14:09:09;108.25;;;102.32;;
54641;SDS011;40536;53.194;5.728;2023-11-21T14:11:34;58.85;;;55.50;;
54641;SDS011;40536;53.194;5.728;2023-11-21T14:14:03;72.30;;;68.13;;
54641;SDS011;40536;53.194;5.728;2023-11-21T14:16:28;107.10;;;101.40;;
54641;SDS011;40536;53.194;5.728;2023-11-21T14:18:54;122.85;;;116.43;;
54641;SDS011;40536;53.194;5.728;2023-11-21T14:21:29;102.30;;;96.78;;
54641;SDS011;40536;53.194;5.728;2023-11-21T14:23:55;99.55;;;94.28;;
54641;SDS011;40536;53.194;5.728;2023-11-21T14:26:21;89.40;;;84.68;;
54641;SDS011;40536;53.194;5.728;2023-11-21T14:28:48;71.40;;;67.45;;
54641;SDS011;40536;53.194;5.728;2023-11-21T14:31:14;69.32;;;65.38;;
54641;SDS011;40536;53.194;5.728;2023-11-21T14:33:42;71.13;;;67.15;;
54641;SDS011;40536;53.194;5.728;2023-11-21T14:36:09;104.95;;;99.75;;